sensor_id;sensor_type;location;lat;lon;timestamp;pressure;altitude;pressure_sealevel;temperature;humidity
61119;BME280;51448;51.660;5.824;2023-07-13T00:01:11;101322.47;;;15.93;80.82
61119;BME280;51448;51.660;5.824;2023-07-13T00:03:39;101328.81;;;15.89;80.88
61119;BME280;51448;51.660;5.824;2023-07-13T00:06:10;101329.81;;;15.86;81.10
61119;BME280;51448;51.660;5.824;2023-07-13T00:08:38;101329.19;;;15.81;81.13
61119;BME280;51448;51.660;5.824;2023-07-13T00:11:06;101333.75;;;15.78;81.22
61119;BME280;51448;51.660;5.824;2023-07-13T00:13:35;101338.28;;;15.74;81.41
61119;BME280;51448;51.660;5.824;2023-07-13T00:16:05;101327.81;;;15.71;81.51
61119;BME280;51448;51.660;5.824;2023-07-13T00:18:33;101327.91;;;15.68;81.73
61119;BME280;51448;51.660;5.824;2023-07-13T00:21:00;101316.56;;;15.64;81.88
61119;BME280;51448;51.660;5.824;2023-07-13T00:23:35;101324.84;;;15.57;81.35
61119;BME280;51448;51.660;5.824;2023-07-13T00:26:08;101329.28;;;15.56;82.11
61119;BME280;51448;51.660;5.824;2023-07-13T00:28:38;101332.81;;;15.57;82.05
61119;BME280;51448;51.660;5.824;2023-07-13T00:31:08;101338.97;;;15.57;82.24
61119;BME280;51448;51.660;5.824;2023-07-13T00:33:49;101341.63;;;15.57;82.45
61119;BME280;51448;51.660;5.824;2023-07-13T00:36:17;101334.56;;;15.56;82.73
61119;BME280;51448;51.660;5.824;2023-07-13T00:38:45;101335.53;;;15.55;82.48
61119;BME280;51448;51.660;5.824;2023-07-13T00:41:13;101336.38;;;15.56;82.59
61119;BME280;51448;51.660;5.824;2023-07-13T00:43:41;101332.91;;;15.54;82.76
61119;BME280;51448;51.660;5.824;2023-07-13T00:46:21;101336.44;;;15.54;83.20
61119;BME280;51448;51.660;5.824;2023-07-13T00:48:54;101325.97;;;15.51;83.37
61119;BME280;51448;51.660;5.824;2023-07-13T00:51:34;101325.16;;;15.49;83.57
61119;BME280;51448;51.660;5.824;2023-07-13T00:54:08;101328.81;;;15.46;83.72
61119;BME280;51448;51.660;5.824;2023-07-13T00:56:40;101333.31;;;15.44;83.61
61119;BME280;51448;51.660;5.824;2023-07-13T00:59:12;101332.56;;;15.41;83.82
61119;BME280;51448;51.660;5.824;2023-07-13T01:01:42;101336.13;;;15.40;83.96
61119;BME280;51448;51.660;5.824;2023-07-13T01:04:10;101337.06;;;15.39;84.06
61119;BME280;51448;51.660;5.824;2023-07-13T01:06:39;101340.56;;;15.39;84.49
61119;BME280;51448;51.660;5.824;2023-07-13T01:09:08;101345.06;;;15.37;84.18
61119;BME280;51448;51.660;5.824;2023-07-13T01:11:40;101342.38;;;15.39;84.25
61119;BME280;51448;51.660;5.824;2023-07-13T01:14:08;101340.63;;;15.38;84.51
61119;BME280;51448;51.660;5.824;2023-07-13T01:16:37;101346.81;;;15.38;84.44
61119;BME280;51448;51.660;5.824;2023-07-13T01:19:20;101342.47;;;15.36;84.66
61119;BME280;51448;51.660;5.824;2023-07-13T01:21:53;101347.06;;;15.32;84.69
61119;BME280;51448;51.660;5.824;2023-07-13T01:24:20;101347.09;;;15.31;84.68
61119;BME280;51448;51.660;5.824;2023-07-13T01:26:49;101349.00;;;15.27;84.92
61119;BME280;51448;51.660;5.824;2023-07-13T01:29:17;101350.00;;;15.24;85.03
61119;BME280;51448;51.660;5.824;2023-07-13T01:31:45;101338.59;;;15.22;85.34
61119;BME280;51448;51.660;5.824;2023-07-13T01:34:14;101339.50;;;15.21;85.28
61119;BME280;51448;51.660;5.824;2023-07-13T01:36:41;101337.78;;;15.20;85.45
61119;BME280;51448;51.660;5.824;2023-07-13T01:39:09;101341.34;;;15.19;85.58
61119;BME280;51448;51.660;5.824;2023-07-13T01:41:36;101334.41;;;15.17;85.74
61119;BME280;51448;51.660;5.824;2023-07-13T01:44:04;101341.50;;;15.16;85.94
61119;BME280;51448;51.660;5.824;2023-07-13T01:46:32;101335.38;;;15.14;86.06
61119;BME280;51448;51.660;5.824;2023-07-13T01:49:00;101337.19;;;15.14;86.22
61119;BME280;51448;51.660;5.824;2023-07-13T01:51:27;101341.72;;;15.10;86.27
61119;BME280;51448;51.660;5.824;2023-07-13T01:53:55;101341.72;;;15.10;86.30
61119;BME280;51448;51.660;5.824;2023-07-13T01:56:23;101339.19;;;15.07;86.46
61119;BME280;51448;51.660;5.824;2023-07-13T01:58:52;101342.81;;;15.04;86.78
61119;BME280;51448;51.660;5.824;2023-07-13T02:01:20;101337.56;;;15.03;86.87
61119;BME280;51448;51.660;5.824;2023-07-13T02:03:48;101334.13;;;15.01;87.00
61119;BME280;51448;51.660;5.824;2023-07-13T02:06:15;101340.34;;;15.00;87.13
61119;BME280;51448;51.660;5.824;2023-07-13T02:08:44;101338.63;;;14.99;87.66
61119;BME280;51448;51.660;5.824;2023-07-13T02:11:12;101338.75;;;14.96;87.49
61119;BME280;51448;51.660;5.824;2023-07-13T02:13:40;101342.31;;;14.95;87.59
61119;BME280;51448;51.660;5.824;2023-07-13T02:16:08;101344.16;;;14.93;87.60
61119;BME280;51448;51.660;5.824;2023-07-13T02:18:36;101344.22;;;14.91;87.68
61119;BME280;51448;51.660;5.824;2023-07-13T02:21:05;101337.25;;;14.88;88.00
61119;BME280;51448;51.660;5.824;2023-07-13T02:23:32;101337.31;;;14.87;87.92
61119;BME280;51448;51.660;5.824;2023-07-13T02:26:03;101336.44;;;14.86;88.49
61119;BME280;51448;51.660;5.824;2023-07-13T02:28:31;101333.06;;;14.83;88.49
61119;BME280;51448;51.660;5.824;2023-07-13T02:31:10;101326.88;;;14.82;88.99
61119;BME280;51448;51.660;5.824;2023-07-13T02:33:40;101343.81;;;14.78;88.88
61119;BME280;51448;51.660;5.824;2023-07-13T02:36:08;101336.00;;;14.75;89.07
61119;BME280;51448;51.660;5.824;2023-07-13T02:38:37;101337.78;;;14.75;89.28
61119;BME280;51448;51.660;5.824;2023-07-13T02:41:07;101336.84;;;14.76;89.40
61119;BME280;51448;51.660;5.824;2023-07-13T02:43:37;101348.38;;;14.75;89.46
61119;BME280;51448;51.660;5.824;2023-07-13T02:46:05;101348.44;;;14.73;89.55
61119;BME280;51448;51.660;5.824;2023-07-13T02:48:37;101342.31;;;14.71;90.03
61119;BME280;51448;51.660;5.824;2023-07-13T02:51:07;101345.88;;;14.70;89.89
61119;BME280;51448;51.660;5.824;2023-07-13T02:53:35;101349.50;;;14.67;90.21
61119;BME280;51448;51.660;5.824;2023-07-13T02:56:04;101353.00;;;14.68;90.25
61119;BME280;51448;51.660;5.824;2023-07-13T02:58:33;101353.94;;;14.67;90.61
61119;BME280;51448;51.660;5.824;2023-07-13T03:01:09;101355.66;;;14.68;90.72
61119;BME280;51448;51.660;5.824;2023-07-13T03:03:38;101357.50;;;14.66;90.59
61119;BME280;51448;51.660;5.824;2023-07-13T03:06:06;101356.69;;;14.64;90.81
61119;BME280;51448;51.660;5.824;2023-07-13T03:08:44;101360.31;;;14.61;91.36
61119;BME280;51448;51.660;5.824;2023-07-13T03:11:18;101356.81;;;14.61;91.32
61119;BME280;51448;51.660;5.824;2023-07-13T03:13:53;101364.81;;;14.59;91.40
61119;BME280;51448;51.660;5.824;2023-07-13T03:16:22;101368.38;;;14.58;91.58
61119;BME280;51448;51.660;5.824;2023-07-13T03:18:53;101368.44;;;14.57;91.70
61119;BME280;51448;51.660;5.824;2023-07-13T03:21:22;101370.25;;;14.55;91.63
61119;BME280;51448;51.660;5.824;2023-07-13T03:23:50;101364.09;;;14.54;92.07
61119;BME280;51448;51.660;5.824;2023-07-13T03:26:19;101364.09;;;14.54;91.94
61119;BME280;51448;51.660;5.824;2023-07-13T03:28:48;101370.34;;;14.52;92.41
61119;BME280;51448;51.660;5.824;2023-07-13T03:31:27;101364.19;;;14.51;92.64
61119;BME280;51448;51.660;5.824;2023-07-13T03:33:57;101361.66;;;14.48;92.36
61119;BME280;51448;51.660;5.824;2023-07-13T03:36:27;101371.38;;;14.47;92.67
61119;BME280;51448;51.660;5.824;2023-07-13T03:39:00;101378.44;;;14.47;92.73
61119;BME280;51448;51.660;5.824;2023-07-13T03:41:37;101381.13;;;14.45;93.13
61119;BME280;51448;51.660;5.824;2023-07-13T03:44:05;101377.69;;;14.43;93.06
61119;BME280;51448;51.660;5.824;2023-07-13T03:46:34;101375.84;;;14.45;93.12
61119;BME280;51448;51.660;5.824;2023-07-13T03:49:04;101377.59;;;14.46;93.28
61119;BME280;51448;51.660;5.824;2023-07-13T03:51:33;101387.31;;;14.46;93.34
61119;BME280;51448;51.660;5.824;2023-07-13T03:54:01;101391.72;;;14.45;93.78
61119;BME280;51448;51.660;5.824;2023-07-13T03:56:30;101392.63;;;14.46;93.90
61119;BME280;51448;51.660;5.824;2023-07-13T03:59:01;101393.47;;;14.46;93.96
61119;BME280;51448;51.660;5.824;2023-07-13T04:01:30;101390.78;;;14.48;94.12
61119;BME280;51448;51.660;5.824;2023-07-13T04:03:58;101392.50;;;14.49;94.25
61119;BME280;51448;51.660;5.824;2023-07-13T04:06:31;101392.44;;;14.51;93.99
61119;BME280;51448;51.660;5.824;2023-07-13T04:09:01;101405.69;;;14.51;94.40
61119;BME280;51448;51.660;5.824;2023-07-13T04:11:33;101395.03;;;14.52;94.67
61119;BME280;51448;51.660;5.824;2023-07-13T04:14:04;101399.44;;;14.52;94.74
61119;BME280;51448;51.660;5.824;2023-07-13T04:16:34;101399.41;;;14.53;94.69
61119;BME280;51448;51.660;5.824;2023-07-13T04:19:01;101403.75;;;14.56;94.80
61119;BME280;51448;51.660;5.824;2023-07-13T04:21:30;101406.34;;;14.57;95.26
61119;BME280;51448;51.660;5.824;2023-07-13T04:23:59;101407.22;;;14.58;95.24
61119;BME280;51448;51.660;5.824;2023-07-13T04:26:26;101403.66;;;14.59;95.30
61119;BME280;51448;51.660;5.824;2023-07-13T04:28:55;101407.16;;;14.59;95.48
61119;BME280;51448;51.660;5.824;2023-07-13T04:31:23;101415.00;;;14.62;95.68
61119;BME280;51448;51.660;5.824;2023-07-13T04:33:51;101407.00;;;14.64;95.49
61119;BME280;51448;51.660;5.824;2023-07-13T04:36:19;101409.53;;;14.67;95.88
61119;BME280;51448;51.660;5.824;2023-07-13T04:38:47;101407.66;;;14.71;95.96
61119;BME280;51448;51.660;5.824;2023-07-13T04:41:16;101413.69;;;14.74;96.43
61119;BME280;51448;51.660;5.824;2023-07-13T04:43:43;101418.84;;;14.79;96.28
61119;BME280;51448;51.660;5.824;2023-07-13T04:46:13;101415.97;;;14.85;96.55
61119;BME280;51448;51.660;5.824;2023-07-13T04:48:45;101421.88;;;14.92;96.61
61119;BME280;51448;51.660;5.824;2023-07-13T04:51:13;101426.16;;;14.96;96.64
61119;BME280;51448;51.660;5.824;2023-07-13T04:53:40;101418.88;;;15.01;96.68
61119;BME280;51448;51.660;5.824;2023-07-13T04:56:08;101423.09;;;15.06;97.07
61119;BME280;51448;51.660;5.824;2023-07-13T04:58:36;101423.81;;;15.12;96.95
61119;BME280;51448;51.660;5.824;2023-07-13T05:01:05;101420.97;;;15.16;97.17
61119;BME280;51448;51.660;5.824;2023-07-13T05:03:34;101422.53;;;15.22;97.08
61119;BME280;51448;51.660;5.824;2023-07-13T05:06:07;101425.81;;;15.28;97.38
61119;BME280;51448;51.660;5.824;2023-07-13T05:08:38;101429.13;;;15.34;97.44
61119;BME280;51448;51.660;5.824;2023-07-13T05:11:06;101435.94;;;15.41;97.41
61119;BME280;51448;51.660;5.824;2023-07-13T05:13:35;101440.00;;;15.49;97.51
61119;BME280;51448;51.660;5.824;2023-07-13T05:16:04;101437.91;;;15.58;97.59
61119;BME280;51448;51.660;5.824;2023-07-13T05:18:36;101430.66;;;15.63;97.66
61119;BME280;51448;51.660;5.824;2023-07-13T05:21:09;101442.00;;;15.66;97.74
61119;BME280;51448;51.660;5.824;2023-07-13T05:23:39;101443.53;;;15.74;98.03
61119;BME280;51448;51.660;5.824;2023-07-13T05:26:09;101444.28;;;15.77;98.01
61119;BME280;51448;51.660;5.824;2023-07-13T05:28:37;101451.97;;;15.83;98.04
61119;BME280;51448;51.660;5.824;2023-07-13T05:31:07;101446.34;;;15.91;98.33
61119;BME280;51448;51.660;5.824;2023-07-13T05:33:37;101451.34;;;15.99;98.29
61119;BME280;51448;51.660;5.824;2023-07-13T05:36:04;101459.91;;;16.05;98.59
61119;BME280;51448;51.660;5.824;2023-07-13T05:38:34;101449.19;;;16.08;98.84
61119;BME280;51448;51.660;5.824;2023-07-13T05:41:01;101463.09;;;16.14;98.81
61119;BME280;51448;51.660;5.824;2023-07-13T05:43:33;101463.09;;;16.14;98.27
61119;BME280;51448;51.660;5.824;2023-07-13T05:46:01;101469.09;;;16.19;98.86
61119;BME280;51448;51.660;5.824;2023-07-13T05:48:29;101471.50;;;16.25;98.87
61119;BME280;51448;51.660;5.824;2023-07-13T05:50:57;101478.41;;;16.29;98.94
61119;BME280;51448;51.660;5.824;2023-07-13T05:53:24;101474.69;;;16.33;99.15
61119;BME280;51448;51.660;5.824;2023-07-13T05:55:54;101477.94;;;16.40;99.12
61119;BME280;51448;51.660;5.824;2023-07-13T05:58:22;101470.66;;;16.45;99.16
61119;BME280;51448;51.660;5.824;2023-07-13T06:00:59;101480.03;;;16.54;99.35
61119;BME280;51448;51.660;5.824;2023-07-13T06:03:29;101483.47;;;16.56;99.25
61119;BME280;51448;51.660;5.824;2023-07-13T06:05:57;101485.88;;;16.62;99.22
61119;BME280;51448;51.660;5.824;2023-07-13T06:08:24;101488.28;;;16.68;99.25
61119;BME280;51448;51.660;5.824;2023-07-13T06:10:53;101489.72;;;16.75;98.92
61119;BME280;51448;51.660;5.824;2023-07-13T06:13:22;101497.44;;;16.81;99.08
61119;BME280;51448;51.660;5.824;2023-07-13T06:15:49;101491.97;;;16.86;99.05
61119;BME280;51448;51.660;5.824;2023-07-13T06:18:17;101493.59;;;16.88;99.11
61119;BME280;51448;51.660;5.824;2023-07-13T06:20:45;101498.66;;;16.95;98.70
61119;BME280;51448;51.660;5.824;2023-07-13T06:23:12;101499.25;;;17.01;98.58
61119;BME280;51448;51.660;5.824;2023-07-13T06:25:40;101495.38;;;17.08;98.69
61119;BME280;51448;51.660;5.824;2023-07-13T06:28:08;101507.41;;;17.17;98.40
61119;BME280;51448;51.660;5.824;2023-07-13T06:30:38;101504.47;;;17.23;98.26
61119;BME280;51448;51.660;5.824;2023-07-13T06:33:07;101497.28;;;17.25;98.13
61119;BME280;51448;51.660;5.824;2023-07-13T06:35:35;101511.09;;;17.34;98.00
61119;BME280;51448;51.660;5.824;2023-07-13T06:38:02;101507.06;;;17.44;98.00
61119;BME280;51448;51.660;5.824;2023-07-13T06:40:30;101503.34;;;17.48;97.50
61119;BME280;51448;51.660;5.824;2023-07-13T06:42:59;101509.38;;;17.52;97.41
61119;BME280;51448;51.660;5.824;2023-07-13T06:45:27;101506.50;;;17.56;97.18
61119;BME280;51448;51.660;5.824;2023-07-13T06:47:55;101503.56;;;17.62;97.04
61119;BME280;51448;51.660;5.824;2023-07-13T06:50:22;101514.16;;;17.83;96.88
61119;BME280;51448;51.660;5.824;2023-07-13T06:52:50;101511.81;;;17.94;96.71
61119;BME280;51448;51.660;5.824;2023-07-13T06:55:18;101514.13;;;18.02;96.50
61119;BME280;51448;51.660;5.824;2023-07-13T06:57:45;101512.00;;;18.08;96.40
61119;BME280;51448;51.660;5.824;2023-07-13T07:00:14;101511.03;;;18.11;96.04
61119;BME280;51448;51.660;5.824;2023-07-13T07:02:42;101512.66;;;18.14;95.59
61119;BME280;51448;51.660;5.824;2023-07-13T07:05:10;101518.63;;;18.19;95.20
61119;BME280;51448;51.660;5.824;2023-07-13T07:07:38;101518.63;;;18.19;95.24
61119;BME280;51448;51.660;5.824;2023-07-13T07:10:06;101523.00;;;18.20;95.16
61119;BME280;51448;51.660;5.824;2023-07-13T07:12:34;101526.53;;;18.20;95.02
61119;BME280;51448;51.660;5.824;2023-07-13T07:15:02;101521.13;;;18.22;94.83
61119;BME280;51448;51.660;5.824;2023-07-13T07:17:30;101526.47;;;18.22;94.69
61119;BME280;51448;51.660;5.824;2023-07-13T07:19:57;101528.16;;;18.23;94.61
61119;BME280;51448;51.660;5.824;2023-07-13T07:22:25;101530.94;;;18.21;94.59
61119;BME280;51448;51.660;5.824;2023-07-13T07:24:54;101529.13;;;18.22;94.43
61119;BME280;51448;51.660;5.824;2023-07-13T07:27:23;101537.13;;;18.22;94.50
61119;BME280;51448;51.660;5.824;2023-07-13T07:29:54;101534.38;;;18.23;94.46
61119;BME280;51448;51.660;5.824;2023-07-13T07:32:41;101535.31;;;18.22;94.38
61119;BME280;51448;51.660;5.824;2023-07-13T07:35:23;101542.44;;;18.22;94.43
61119;BME280;51448;51.660;5.824;2023-07-13T07:37:52;101539.00;;;18.20;94.22
61119;BME280;51448;51.660;5.824;2023-07-13T07:40:19;101539.06;;;18.18;94.67
61119;BME280;51448;51.660;5.824;2023-07-13T07:42:50;101543.47;;;18.19;94.72
61119;BME280;51448;51.660;5.824;2023-07-13T07:45:18;101541.66;;;18.20;94.55
61119;BME280;51448;51.660;5.824;2023-07-13T07:47:47;101545.03;;;18.23;94.62
61119;BME280;51448;51.660;5.824;2023-07-13T07:50:15;101547.28;;;18.31;94.56
61119;BME280;51448;51.660;5.824;2023-07-13T07:52:42;101547.72;;;18.41;94.08
61119;BME280;51448;51.660;5.824;2023-07-13T07:55:11;101543.72;;;18.49;94.16
61119;BME280;51448;51.660;5.824;2023-07-13T07:57:42;101546.78;;;18.59;93.88
61119;BME280;51448;51.660;5.824;2023-07-13T08:00:13;101549.78;;;18.70;93.66
61119;BME280;51448;51.660;5.824;2023-07-13T08:02:47;101550.34;;;18.77;93.28
61119;BME280;51448;51.660;5.824;2023-07-13T08:05:18;101548.00;;;18.88;93.08
61119;BME280;51448;51.660;5.824;2023-07-13T08:07:49;101546.56;;;18.99;93.01
61119;BME280;51448;51.660;5.824;2023-07-13T08:10:17;101551.19;;;19.13;92.49
61119;BME280;51448;51.660;5.824;2023-07-13T08:12:46;101543.66;;;19.21;92.07
61119;BME280;51448;51.660;5.824;2023-07-13T08:15:33;101540.59;;;19.28;91.85
61119;BME280;51448;51.660;5.824;2023-07-13T08:18:01;101545.53;;;19.36;91.51
61119;BME280;51448;51.660;5.824;2023-07-13T08:20:29;101544.94;;;19.47;91.09
61119;BME280;51448;51.660;5.824;2023-07-13T08:22:56;101539.84;;;19.58;90.77
61119;BME280;51448;51.660;5.824;2023-07-13T08:25:24;101538.97;;;19.75;90.47
61119;BME280;51448;51.660;5.824;2023-07-13T08:27:52;101537.34;;;19.88;90.20
61119;BME280;51448;51.660;5.824;2023-07-13T08:30:20;101540.44;;;19.97;89.67
61119;BME280;51448;51.660;5.824;2023-07-13T08:32:48;101532.78;;;20.06;88.96
61119;BME280;51448;51.660;5.824;2023-07-13T08:35:17;101535.31;;;20.24;88.69
61119;BME280;51448;51.660;5.824;2023-07-13T08:37:44;101527.56;;;20.35;87.85
61119;BME280;51448;51.660;5.824;2023-07-13T08:40:12;101527.88;;;20.61;87.60
61119;BME280;51448;51.660;5.824;2023-07-13T08:42:58;101531.50;;;20.90;86.43
61119;BME280;51448;51.660;5.824;2023-07-13T08:48:18;101534.59;;;21.41;83.34
61119;BME280;51448;51.660;5.824;2023-07-13T08:50:58;101537.16;;;21.57;83.54
61119;BME280;51448;51.660;5.824;2023-07-13T08:53:42;101541.06;;;21.80;81.81
61119;BME280;51448;51.660;5.824;2023-07-13T08:56:22;101543.75;;;21.80;79.97
61119;BME280;51448;51.660;5.824;2023-07-13T08:58:57;101537.88;;;21.88;80.54
61119;BME280;51448;51.660;5.824;2023-07-13T09:02:08;101541.34;;;21.76;80.33
61119;BME280;51448;51.660;5.824;2023-07-13T09:05:01;101542.91;;;21.51;80.35
61119;BME280;51448;51.660;5.824;2023-07-13T09:10:42;101539.63;;;21.03;78.79
61119;BME280;51448;51.660;5.824;2023-07-13T09:16:12;101543.91;;;21.05;79.56
61119;BME280;51448;51.660;5.824;2023-07-13T09:18:55;101530.47;;;21.36;79.49
61119;BME280;51448;51.660;5.824;2023-07-13T09:21:32;101525.13;;;21.64;78.91
61119;BME280;51448;51.660;5.824;2023-07-13T09:24:29;101530.59;;;21.90;78.17
61119;BME280;51448;51.660;5.824;2023-07-13T09:27:22;101531.22;;;21.81;78.43
61119;BME280;51448;51.660;5.824;2023-07-13T09:32:47;101525.78;;;22.09;75.55
61119;BME280;51448;51.660;5.824;2023-07-13T09:35:25;101542.69;;;22.24;75.24
61119;BME280;51448;51.660;5.824;2023-07-13T09:37:59;101544.38;;;22.40;74.70
61119;BME280;51448;51.660;5.824;2023-07-13T09:43:08;101532.00;;;22.77;73.02
61119;BME280;51448;51.660;5.824;2023-07-13T09:45:40;101533.09;;;23.00;71.90
61119;BME280;51448;51.660;5.824;2023-07-13T09:48:14;101532.81;;;23.18;71.00
61119;BME280;51448;51.660;5.824;2023-07-13T09:50:44;101534.06;;;23.38;70.86
61119;BME280;51448;51.660;5.824;2023-07-13T09:53:14;101531.69;;;23.59;68.79
61119;BME280;51448;51.660;5.824;2023-07-13T09:55:46;101527.56;;;23.79;69.24
61119;BME280;51448;51.660;5.824;2023-07-13T09:58:26;101534.00;;;23.89;69.42
61119;BME280;51448;51.660;5.824;2023-07-13T10:01:01;101533.53;;;23.95;67.56
61119;BME280;51448;51.660;5.824;2023-07-13T10:03:36;101538.00;;;23.83;67.37
61119;BME280;51448;51.660;5.824;2023-07-13T10:06:14;101535.75;;;23.64;67.65
61119;BME280;51448;51.660;5.824;2023-07-13T10:08:49;101533.06;;;23.64;66.68
61119;BME280;51448;51.660;5.824;2023-07-13T10:11:21;101535.53;;;23.67;66.29
61119;BME280;51448;51.660;5.824;2023-07-13T10:13:53;101522.34;;;23.77;66.62
61119;BME280;51448;51.660;5.824;2023-07-13T10:16:32;101535.63;;;23.92;67.25
61119;BME280;51448;51.660;5.824;2023-07-13T10:19:10;101535.31;;;24.07;64.92
61119;BME280;51448;51.660;5.824;2023-07-13T10:21:55;101540.84;;;23.93;64.50
61119;BME280;51448;51.660;5.824;2023-07-13T10:24:33;101538.31;;;23.79;64.70
61119;BME280;51448;51.660;5.824;2023-07-13T10:29:52;101547.84;;;23.96;65.66
61119;BME280;51448;51.660;5.824;2023-07-13T10:32:26;101537.75;;;23.86;64.67
61119;BME280;51448;51.660;5.824;2023-07-13T10:34:54;101530.84;;;23.95;64.26
61119;BME280;51448;51.660;5.824;2023-07-13T10:37:27;101538.41;;;23.90;63.63
61119;BME280;51448;51.660;5.824;2023-07-13T10:40:00;101536.38;;;23.81;63.82
61119;BME280;51448;51.660;5.824;2023-07-13T10:42:35;101533.69;;;23.68;63.60
61119;BME280;51448;51.660;5.824;2023-07-13T10:45:18;101537.59;;;23.51;63.43
61119;BME280;51448;51.660;5.824;2023-07-13T10:47:51;101546.47;;;23.64;64.76
61119;BME280;51448;51.660;5.824;2023-07-13T10:50:25;101553.03;;;23.73;64.06
61119;BME280;51448;51.660;5.824;2023-07-13T10:53:01;101549.34;;;23.87;62.36
61119;BME280;51448;51.660;5.824;2023-07-13T10:55:58;101551.03;;;24.01;62.90
61119;BME280;51448;51.660;5.824;2023-07-13T10:58:38;101560.03;;;24.13;61.57
61119;BME280;51448;51.660;5.824;2023-07-13T11:01:13;101559.63;;;24.06;62.23
61119;BME280;51448;51.660;5.824;2023-07-13T11:04:03;101562.63;;;24.14;61.24
61119;BME280;51448;51.660;5.824;2023-07-13T11:06:37;101554.38;;;24.04;61.45
61119;BME280;51448;51.660;5.824;2023-07-13T11:09:40;101562.59;;;23.90;60.98
61119;BME280;51448;51.660;5.824;2023-07-13T11:17:33;101565.22;;;23.27;62.03
61119;BME280;51448;51.660;5.824;2023-07-13T11:20:20;101577.56;;;23.04;62.73
61119;BME280;51448;51.660;5.824;2023-07-13T11:25:39;101602.31;;;22.68;63.18
61119;BME280;51448;51.660;5.824;2023-07-13T11:36:12;101610.69;;;21.80;66.37
61119;BME280;51448;51.660;5.824;2023-07-13T11:38:45;101612.47;;;21.65;67.63
61119;BME280;51448;51.660;5.824;2023-07-13T11:41:23;101606.19;;;21.52;68.01
61119;BME280;51448;51.660;5.824;2023-07-13T11:44:05;101609.59;;;21.40;68.59
61119;BME280;51448;51.660;5.824;2023-07-13T11:46:45;101614.84;;;21.41;69.38
61119;BME280;51448;51.660;5.824;2023-07-13T11:49:24;101609.69;;;21.38;70.33
61119;BME280;51448;51.660;5.824;2023-07-13T11:51:54;101610.50;;;21.24;70.21
61119;BME280;51448;51.660;5.824;2023-07-13T11:54:31;101624.13;;;21.05;71.29
61119;BME280;51448;51.660;5.824;2023-07-13T11:57:03;101627.41;;;20.80;72.20
61119;BME280;51448;51.660;5.824;2023-07-13T11:59:44;101622.84;;;20.50;73.80
61119;BME280;51448;51.660;5.824;2023-07-13T12:05:01;101626.38;;;19.87;76.99
61119;BME280;51448;51.660;5.824;2023-07-13T12:07:33;101625.00;;;19.63;78.21
61119;BME280;51448;51.660;5.824;2023-07-13T12:13:05;101603.03;;;19.58;80.67
61119;BME280;51448;51.660;5.824;2023-07-13T12:15:43;101599.44;;;19.92;82.18
61119;BME280;51448;51.660;5.824;2023-07-13T12:18:21;101598.06;;;20.17;81.70
61119;BME280;51448;51.660;5.824;2023-07-13T12:20:56;101588.66;;;20.25;81.91
61119;BME280;51448;51.660;5.824;2023-07-13T12:23:32;101589.78;;;20.37;82.25
61119;BME280;51448;51.660;5.824;2023-07-13T12:26:05;101583.03;;;20.46;82.44
61119;BME280;51448;51.660;5.824;2023-07-13T12:28:39;101582.59;;;20.54;82.81
61119;BME280;51448;51.660;5.824;2023-07-13T12:34:11;101590.16;;;20.77;83.52
61119;BME280;51448;51.660;5.824;2023-07-13T12:36:55;101589.03;;;20.81;83.61
61119;BME280;51448;51.660;5.824;2023-07-13T12:39:35;101590.75;;;20.82;83.60
61119;BME280;51448;51.660;5.824;2023-07-13T12:42:28;101593.84;;;20.90;83.96
61119;BME280;51448;51.660;5.824;2023-07-13T12:45:15;101597.34;;;21.21;84.36
61119;BME280;51448;51.660;5.824;2023-07-13T12:47:52;101593.97;;;21.48;84.10
61119;BME280;51448;51.660;5.824;2023-07-13T12:50:29;101588.00;;;21.57;83.46
61119;BME280;51448;51.660;5.824;2023-07-13T12:53:03;101587.63;;;21.63;83.17
61119;BME280;51448;51.660;5.824;2023-07-13T12:55:44;101593.47;;;21.70;82.32
61119;BME280;51448;51.660;5.824;2023-07-13T12:58:26;101591.66;;;21.70;82.21
61119;BME280;51448;51.660;5.824;2023-07-13T13:00:58;101575.00;;;21.80;81.10
61119;BME280;51448;51.660;5.824;2023-07-13T13:03:37;101574.00;;;22.09;80.93
61119;BME280;51448;51.660;5.824;2023-07-13T13:06:22;101574.94;;;22.50;80.09
61119;BME280;51448;51.660;5.824;2023-07-13T13:08:57;101572.34;;;22.88;79.38
61119;BME280;51448;51.660;5.824;2023-07-13T13:11:29;101572.09;;;23.19;78.34
61119;BME280;51448;51.660;5.824;2023-07-13T13:13:58;101579.19;;;23.33;76.50
61119;BME280;51448;51.660;5.824;2023-07-13T13:18:55;101574.44;;;23.23;76.63
61119;BME280;51448;51.660;5.824;2023-07-13T13:21:26;101582.72;;;23.20;74.71
61119;BME280;51448;51.660;5.824;2023-07-13T13:23:54;101584.84;;;23.15;73.96
61119;BME280;51448;51.660;5.824;2023-07-13T13:26:22;101582.72;;;23.07;73.62
61119;BME280;51448;51.660;5.824;2023-07-13T13:28:50;101585.69;;;23.03;73.10
61119;BME280;51448;51.660;5.824;2023-07-13T13:31:21;101588.19;;;23.06;72.09
61119;BME280;51448;51.660;5.824;2023-07-13T13:33:48;101578.41;;;23.05;71.46
61119;BME280;51448;51.660;5.824;2023-07-13T13:36:21;101577.94;;;22.98;71.33
61119;BME280;51448;51.660;5.824;2023-07-13T13:38:50;101583.72;;;22.92;70.88
61119;BME280;51448;51.660;5.824;2023-07-13T13:41:18;101579.84;;;22.83;69.72
61119;BME280;51448;51.660;5.824;2023-07-13T13:43:46;101580.59;;;22.73;69.70
61119;BME280;51448;51.660;5.824;2023-07-13T13:46:17;101581.50;;;22.59;68.17
61119;BME280;51448;51.660;5.824;2023-07-13T13:48:48;101588.63;;;22.45;68.97
61119;BME280;51448;51.660;5.824;2023-07-13T13:51:19;101588.50;;;22.34;68.95
61119;BME280;51448;51.660;5.824;2023-07-13T13:53:49;101601.69;;;22.23;68.59
61119;BME280;51448;51.660;5.824;2023-07-13T13:56:19;101587.38;;;22.09;68.63
61119;BME280;51448;51.660;5.824;2023-07-13T13:58:47;101591.94;;;21.95;69.07